createdAt,value
2018-10-18T00:00:47.550Z,96506.38
2018-10-18T00:03:15.998Z,96506.58
2018-10-18T00:05:44.304Z,96498.34
2018-10-18T00:08:12.774Z,96497.69
2018-10-18T00:10:41.410Z,96504.16
2018-10-18T00:13:09.688Z,96505.80
2018-10-18T00:15:38.115Z,96505.08
2018-10-18T00:18:06.984Z,96507.29
2018-10-18T00:20:35.394Z,96507.19
2018-10-18T00:23:03.969Z,96510.37
2018-10-18T00:25:32.355Z,96515.41
2018-10-18T00:28:00.795Z,96510.78
2018-10-18T00:30:29.131Z,96513.91
2018-10-18T00:32:57.509Z,96511.73
2018-10-18T00:35:25.801Z,96514.75
2018-10-18T00:37:54.376Z,96512.78
2018-10-18T00:40:22.705Z,96505.80
2018-10-18T00:42:51.209Z,96504.48
2018-10-18T00:45:19.545Z,96503.32
2018-10-18T00:47:48.961Z,96498.52
2018-10-18T00:50:17.406Z,96500.73
2018-10-18T00:52:45.697Z,96499.28
2018-10-18T00:55:14.113Z,96495.64
2018-10-18T00:57:42.455Z,96493.84
2018-10-18T01:00:11.836Z,96500.70
2018-10-18T01:02:40.111Z,96493.32
2018-10-18T01:05:08.583Z,96495.17
2018-10-18T01:07:36.977Z,96495.55
2018-10-18T01:10:05.289Z,96497.41
2018-10-18T01:12:33.843Z,96500.55
2018-10-18T01:15:02.089Z,96504.55
2018-10-18T01:17:31.005Z,96497.92
2018-10-18T01:19:59.345Z,96498.09
2018-10-18T01:22:27.737Z,96498.58
2018-10-18T01:24:56.092Z,96496.79
2018-10-18T01:27:24.555Z,96495.13
2018-10-18T01:29:53.032Z,96497.27
2018-10-18T01:32:21.429Z,96492.01
2018-10-18T01:34:49.801Z,96494.17
2018-10-18T01:37:18.117Z,96490.87
2018-10-18T01:39:46.875Z,96488.22
2018-10-18T01:42:15.387Z,96485.22
2018-10-18T01:44:43.840Z,96490.20
2018-10-18T01:47:12.217Z,96485.71
2018-10-18T01:49:40.520Z,96485.20
2018-10-18T01:52:08.951Z,96493.27
2018-10-18T01:54:37.244Z,96494.95
2018-10-18T01:57:06.233Z,96488.36
2018-10-18T01:59:34.821Z,96491.66
2018-10-18T02:02:03.205Z,96491.66
2018-10-18T02:04:31.547Z,96490.85
2018-10-18T02:06:59.915Z,96483.41
2018-10-18T02:09:28.221Z,96486.22
2018-10-18T02:11:57.460Z,96491.86
2018-10-18T02:14:25.825Z,96495.16
2018-10-18T02:16:54.115Z,96490.02
2018-10-18T02:19:22.663Z,96485.22
2018-10-18T02:21:51.091Z,96485.56
2018-10-18T02:24:19.504Z,96486.20
2018-10-18T02:26:47.808Z,96487.36
2018-10-18T02:29:16.503Z,96484.20
2018-10-18T02:31:44.857Z,96481.40
2018-10-18T02:34:13.320Z,96485.69
2018-10-18T02:36:41.765Z,96488.04
2018-10-18T02:39:10.547Z,96485.41
2018-10-18T02:41:39.171Z,96477.94
2018-10-18T02:44:07.665Z,96477.11
2018-10-18T02:46:36.056Z,96481.23
2018-10-18T02:49:04.642Z,96474.96
2018-10-18T02:51:32.963Z,96473.64
2018-10-18T02:54:01.360Z,96478.61
2018-10-18T02:56:29.673Z,96472.80
2018-10-18T02:58:58.084Z,96476.79
2018-10-18T03:01:26.385Z,96477.64
2018-10-18T03:03:54.710Z,96481.42
2018-10-18T03:06:23.174Z,96478.77
2018-10-18T03:08:51.662Z,96478.45
2018-10-18T03:11:20.191Z,96482.73
2018-10-18T03:13:48.646Z,96483.92
2018-10-18T03:16:16.966Z,96474.16
2018-10-18T03:18:45.234Z,96480.44
2018-10-18T03:21:13.586Z,96482.42
2018-10-18T03:23:41.882Z,96483.09
2018-10-18T03:26:10.330Z,96484.41
2018-10-18T03:28:38.670Z,96477.45
2018-10-18T03:31:06.975Z,96486.71
2018-10-18T03:33:35.355Z,96489.70
2018-10-18T03:36:03.768Z,96489.86
2018-10-18T03:38:32.158Z,96485.38
2018-10-18T03:41:00.442Z,96480.53
2018-10-18T03:43:28.932Z,96486.98
2018-10-18T03:45:57.338Z,96491.39
2018-10-18T03:48:25.721Z,96489.25
2018-10-18T03:50:54.097Z,96481.84
2018-10-18T03:53:22.444Z,96485.96
2018-10-18T03:55:50.749Z,96481.53
2018-10-18T03:58:19.097Z,96484.84
2018-10-18T04:00:47.686Z,96483.02
2018-10-18T04:03:16.096Z,96480.37
2018-10-18T04:05:44.498Z,96479.71
2018-10-18T04:08:12.778Z,96483.98
2018-10-18T04:10:41.057Z,96481.98
2018-10-18T04:13:09.484Z,96472.37
2018-10-18T04:15:37.785Z,96473.38
2018-10-18T04:18:06.336Z,96470.73
2018-10-18T04:20:34.562Z,96472.56
2018-10-18T04:23:02.946Z,96468.76
2018-10-18T04:25:31.404Z,96472.06
2018-10-18T04:27:59.807Z,96476.19
2018-10-18T04:30:28.259Z,96472.22
2018-10-18T04:32:56.617Z,96475.97
2018-10-18T04:35:24.902Z,96476.31
2018-10-18T04:37:53.188Z,96478.97
2018-10-18T04:40:21.576Z,96480.80
2018-10-18T04:42:49.887Z,96480.30
2018-10-18T04:45:18.207Z,96481.45
2018-10-18T04:47:46.589Z,96475.02
2018-10-18T04:50:14.805Z,96483.29
2018-10-18T04:52:43.088Z,96481.47
2018-10-18T04:55:11.377Z,96485.08
2018-10-18T04:57:39.778Z,96481.95
2018-10-18T05:00:08.265Z,96483.94
2018-10-18T05:02:36.721Z,96481.78
2018-10-18T05:05:16.255Z,96488.23
2018-10-18T05:07:44.590Z,96487.72
2018-10-18T05:10:13.030Z,96490.72
2018-10-18T05:12:41.463Z,96493.14
2018-10-18T05:15:09.904Z,96496.55
2018-10-18T05:17:38.369Z,96493.19
2018-10-18T05:20:07.025Z,96495.09
2018-10-18T05:22:35.351Z,96500.89
2018-10-18T05:25:03.911Z,96502.23
2018-10-18T05:27:32.094Z,96502.95
2018-10-18T05:30:00.510Z,96505.92
2018-10-18T05:32:28.958Z,96507.77
2018-10-18T05:34:57.382Z,96505.24
2018-10-18T05:37:25.745Z,96511.83
2018-10-18T05:39:54.030Z,96517.67
2018-10-18T05:42:22.442Z,96516.95
2018-10-18T05:44:51.214Z,96518.65
2018-10-18T05:47:19.740Z,96517.05
2018-10-18T05:49:48.066Z,96514.90
2018-10-18T05:52:16.422Z,96513.13
2018-10-18T05:54:44.910Z,96518.09
2018-10-18T05:57:13.268Z,96527.07
2018-10-18T05:59:41.591Z,96521.67
2018-10-18T06:02:10.182Z,96523.19
2018-10-18T06:04:38.555Z,96526.00
2018-10-18T06:07:06.979Z,96531.56
2018-10-18T06:09:35.521Z,96533.09
2018-10-18T06:12:04.139Z,96538.06
2018-10-18T06:14:32.709Z,96533.30
2018-10-18T06:17:01.039Z,96534.14
2018-10-18T06:19:29.441Z,96538.73
2018-10-18T06:21:57.763Z,96541.75
2018-10-18T06:24:26.164Z,96540.95
2018-10-18T06:26:55.065Z,96548.94
2018-10-18T06:29:23.383Z,96539.36
2018-10-18T06:31:51.726Z,96546.84
2018-10-18T06:34:20.219Z,96541.59
2018-10-18T06:36:48.600Z,96546.06
2018-10-18T06:39:17.105Z,96549.06
2018-10-18T06:41:45.454Z,96548.20
2018-10-18T06:44:13.878Z,96552.02
2018-10-18T06:46:42.528Z,96551.87
2018-10-18T06:49:10.940Z,96551.56
2018-10-18T06:51:39.266Z,96554.86
2018-10-18T06:54:07.583Z,96554.55
2018-10-18T06:56:35.990Z,96546.09
2018-10-18T06:59:04.429Z,96556.86
2018-10-18T07:01:32.770Z,96557.34
2018-10-18T07:04:01.195Z,96560.83
2018-10-18T07:06:29.526Z,96563.11
2018-10-18T07:08:57.944Z,96563.42
2018-10-18T07:11:26.307Z,96561.41
2018-10-18T07:13:54.658Z,96564.73
2018-10-18T07:16:23.044Z,96570.03
2018-10-18T07:18:51.411Z,96567.66
2018-10-18T07:21:19.734Z,96571.64
2018-10-18T07:23:48.186Z,96573.44
2018-10-18T07:26:16.566Z,96579.56
2018-10-18T07:28:44.922Z,96573.09
2018-10-18T07:31:13.318Z,96575.59
2018-10-18T07:33:41.718Z,96574.27
2018-10-18T07:36:10.088Z,96576.25
2018-10-18T07:38:38.406Z,96576.41
2018-10-18T07:41:06.865Z,96587.85
2018-10-18T07:43:35.181Z,96580.53
2018-10-18T07:46:03.803Z,96585.12
2018-10-18T07:48:32.231Z,96580.42
2018-10-18T07:51:00.645Z,96582.06
2018-10-18T07:53:29.039Z,96584.86
2018-10-18T07:55:57.401Z,96581.55
2018-10-18T07:58:25.873Z,96589.28
2018-10-18T08:00:54.308Z,96588.19
2018-10-18T08:03:22.761Z,96583.12
2018-10-18T08:05:51.120Z,96586.67
2018-10-18T08:08:19.461Z,96580.81
2018-10-18T08:10:47.968Z,96580.13
2018-10-18T08:13:16.397Z,96581.08
2018-10-18T08:15:44.694Z,96582.55
2018-10-18T08:18:13.040Z,96586.48
2018-10-18T08:20:41.367Z,96590.12
2018-10-18T08:23:09.843Z,96582.22
2018-10-18T08:25:38.271Z,96584.34
2018-10-18T08:28:06.605Z,96583.92
2018-10-18T08:30:34.926Z,96593.05
2018-10-18T08:33:03.370Z,96592.84
2018-10-18T08:35:31.793Z,96589.09
2018-10-18T08:38:00.288Z,96592.59
2018-10-18T08:40:28.480Z,96599.11
2018-10-18T08:42:56.858Z,96599.01
2018-10-18T08:45:25.188Z,96606.76
2018-10-18T08:47:53.753Z,96609.53
2018-10-18T08:50:22.177Z,96604.39
2018-10-18T08:52:50.708Z,96609.78
2018-10-18T08:55:19.155Z,96608.27
2018-10-18T08:57:47.477Z,96603.75
2018-10-18T09:00:15.949Z,96611.11
2018-10-18T09:02:44.429Z,96607.88
2018-10-18T09:05:12.830Z,96608.57
2018-10-18T09:07:41.194Z,96605.42
2018-10-18T09:10:09.842Z,96609.22
2018-10-18T09:12:38.170Z,96608.86
2018-10-18T09:15:07.910Z,96610.45
2018-10-18T09:17:36.527Z,96607.07
2018-10-18T09:20:05.577Z,96614.56
2018-10-18T09:22:33.920Z,96605.98
2018-10-18T09:25:02.388Z,96603.91
2018-10-18T09:27:30.678Z,96608.57
2018-10-18T09:29:58.992Z,96600.75
2018-10-18T09:32:27.378Z,96596.70
2018-10-18T09:34:55.825Z,96605.36
2018-10-18T09:37:24.338Z,96604.48
2018-10-18T09:39:52.720Z,96597.69
2018-10-18T09:42:21.046Z,96591.03
2018-10-18T09:44:49.464Z,96593.81
2018-10-18T09:47:17.910Z,96596.73
2018-10-18T09:49:46.290Z,96596.73
2018-10-18T09:52:14.677Z,96596.91
2018-10-18T09:54:43.090Z,96595.58
2018-10-18T09:57:11.412Z,96594.41
2018-10-18T09:59:39.854Z,96594.75
2018-10-18T10:02:13.666Z,96590.98
2018-10-18T10:04:42.064Z,96593.48
2018-10-18T10:07:10.482Z,96586.42
2018-10-18T10:09:39.826Z,96591.81
2018-10-18T10:12:08.841Z,96592.25
2018-10-18T10:14:37.246Z,96585.08
2018-10-18T10:17:06.318Z,96583.58
2018-10-18T10:19:34.709Z,96581.23
2018-10-18T10:22:03.132Z,96576.30
2018-10-18T10:24:31.734Z,96568.92
2018-10-18T10:27:00.091Z,96570.77
2018-10-18T10:29:28.547Z,96561.52
2018-10-18T10:31:57.005Z,96567.59
2018-10-18T10:34:25.486Z,96563.16
2018-10-18T10:36:53.927Z,96559.12
2018-10-18T10:39:22.304Z,96550.06
2018-10-18T10:41:50.649Z,96547.16
2018-10-18T10:44:19.124Z,96549.84
2018-10-18T10:46:47.379Z,96550.83
2018-10-18T10:49:15.786Z,96548.67
2018-10-18T10:51:44.141Z,96549.86
2018-10-18T10:54:12.573Z,96549.89
2018-10-18T10:56:40.888Z,96543.53
2018-10-18T10:59:15.304Z,96547.53
2018-10-18T11:01:43.642Z,96540.47
2018-10-18T11:04:12.254Z,96530.02
2018-10-18T11:06:40.696Z,96525.34
2018-10-18T11:09:10.713Z,96521.18
2018-10-18T11:11:39.006Z,96520.77
2018-10-18T11:14:07.562Z,96518.27
2018-10-18T11:16:35.887Z,96516.61
2018-10-18T11:19:04.387Z,96516.32
2018-10-18T11:21:32.801Z,96511.24
2018-10-18T11:24:01.165Z,96508.70
2018-10-18T11:26:29.543Z,96512.41
2018-10-18T11:28:57.954Z,96505.55
2018-10-18T11:31:26.289Z,96510.38
2018-10-18T11:33:54.674Z,96504.00
2018-10-18T11:36:23.165Z,96508.70
2018-10-18T11:38:51.615Z,96508.98
2018-10-18T11:41:20.007Z,96511.24
2018-10-18T11:43:48.427Z,96505.39
2018-10-18T11:46:16.747Z,96502.15
2018-10-18T11:48:45.169Z,96501.87
2018-10-18T11:51:13.719Z,96499.75
2018-10-18T11:53:42.159Z,96496.08
2018-10-18T11:56:10.609Z,96495.29
2018-10-18T11:58:38.885Z,96495.59
2018-10-18T12:01:07.528Z,96494.94
2018-10-18T12:03:35.968Z,96492.68
2018-10-18T12:06:04.379Z,96487.16
2018-10-18T12:08:32.708Z,96489.41
2018-10-18T12:11:01.279Z,96484.31
2018-10-18T12:13:29.845Z,96486.58
2018-10-18T12:15:58.464Z,96484.17
2018-10-18T12:18:29.456Z,96485.20
2018-10-18T12:20:57.910Z,96484.45
2018-10-18T12:23:26.345Z,96477.72
2018-10-18T12:25:54.682Z,96475.61
2018-10-18T12:28:23.198Z,96474.84
2018-10-18T12:30:51.577Z,96472.06
2018-10-18T12:33:20.188Z,96472.01
2018-10-18T12:35:49.086Z,96465.52
2018-10-18T12:38:17.824Z,96475.13
2018-10-18T12:40:46.310Z,96475.86
2018-10-18T12:43:14.755Z,96477.29
2018-10-18T12:45:43.838Z,96478.55
2018-10-18T12:48:12.330Z,96474.52
2018-10-18T12:50:40.754Z,96481.91
2018-10-18T12:53:09.311Z,96475.64
2018-10-18T12:55:37.707Z,96479.00
2018-10-18T12:58:06.486Z,96481.19
2018-10-18T13:00:34.879Z,96480.77
2018-10-18T13:03:03.289Z,96481.54
2018-10-18T13:05:31.709Z,96487.81
2018-10-18T13:08:00.188Z,96477.75
2018-10-18T13:10:28.525Z,96478.73
2018-10-18T13:12:58.038Z,96471.61
2018-10-18T13:15:26.398Z,96472.86
2018-10-18T13:17:54.784Z,96473.22
2018-10-18T13:20:23.314Z,96474.43
2018-10-18T13:22:51.649Z,96474.51
2018-10-18T13:25:20.069Z,96472.66
2018-10-18T13:27:48.455Z,96470.70
2018-10-18T13:30:16.907Z,96466.66
2018-10-18T13:32:45.230Z,96463.33
2018-10-18T13:35:13.919Z,96467.49
2018-10-18T13:37:42.248Z,96471.53
2018-10-18T13:40:10.594Z,96473.34
2018-10-18T13:42:38.934Z,96467.67
2018-10-18T13:45:07.898Z,96467.14
2018-10-18T13:47:36.492Z,96466.52
2018-10-18T13:50:05.372Z,96467.33
2018-10-18T13:52:33.803Z,96468.13
2018-10-18T13:55:02.179Z,96461.12
2018-10-18T13:57:30.617Z,96457.31
2018-10-18T14:00:24.395Z,96452.75
2018-10-18T14:02:53.623Z,96458.97
2018-10-18T14:05:22.292Z,96455.16
2018-10-18T14:07:51.947Z,96457.09
2018-10-18T14:10:20.507Z,96460.59
2018-10-18T14:12:54.436Z,96458.44
2018-10-18T14:15:22.802Z,96459.78
2018-10-18T14:17:51.220Z,96464.86
2018-10-18T14:20:19.639Z,96456.00
2018-10-18T14:22:47.960Z,96460.52
2018-10-18T14:25:16.366Z,96456.22
2018-10-18T14:27:44.802Z,96460.70
2018-10-18T14:30:13.816Z,96451.94
2018-10-18T14:32:42.172Z,96447.13
2018-10-18T14:35:12.143Z,96442.36
2018-10-18T14:37:40.953Z,96436.11
2018-10-18T14:40:10.795Z,96433.34
2018-10-18T14:42:39.272Z,96437.56
2018-10-18T14:45:08.727Z,96433.13
2018-10-18T14:47:37.002Z,96431.15
2018-10-18T14:50:06.982Z,96433.44
2018-10-18T14:52:35.704Z,96438.55
2018-10-18T14:55:04.146Z,96436.74
2018-10-18T14:57:32.498Z,96435.44
2018-10-18T15:00:00.893Z,96444.72
2018-10-18T15:02:29.515Z,96440.48
2018-10-18T15:04:58.379Z,96442.17
2018-10-18T15:07:26.859Z,96449.75
2018-10-18T15:09:55.266Z,96447.62
2018-10-18T15:12:23.682Z,96448.31
2018-10-18T15:14:52.094Z,96446.77
2018-10-18T15:17:20.469Z,96447.95
2018-10-18T15:19:48.777Z,96449.31
2018-10-18T15:22:17.620Z,96453.34
2018-10-18T15:24:45.954Z,96455.00
2018-10-18T15:27:14.377Z,96456.81
2018-10-18T15:29:43.054Z,96455.22
2018-10-18T15:32:11.829Z,96454.19
2018-10-18T15:34:40.034Z,96461.34
2018-10-18T15:37:08.536Z,96463.42
2018-10-18T15:39:36.952Z,96454.45
2018-10-18T15:42:05.976Z,96454.59
2018-10-18T15:44:34.343Z,96459.37
2018-10-18T15:47:02.799Z,96454.08
2018-10-18T15:49:31.099Z,96455.47
2018-10-18T15:51:59.660Z,96457.42
2018-10-18T15:54:28.431Z,96466.78
2018-10-18T15:56:56.750Z,96465.03
2018-10-18T15:59:25.441Z,96463.97
2018-10-18T16:01:53.829Z,96467.18
2018-10-18T16:04:22.185Z,96466.47
2018-10-18T16:06:50.607Z,96469.75
2018-10-18T16:09:19.009Z,96469.96
2018-10-18T16:11:47.469Z,96475.91
2018-10-18T16:14:15.862Z,96473.86
2018-10-18T16:16:44.165Z,96477.33
2018-10-18T16:19:12.570Z,96485.73
2018-10-18T16:21:41.025Z,96487.13
2018-10-18T16:24:09.460Z,96489.86
2018-10-18T16:26:37.884Z,96497.89
2018-10-18T16:29:06.543Z,96502.97
2018-10-18T16:31:34.977Z,96501.48
2018-10-18T16:34:03.525Z,96510.91
2018-10-18T16:36:31.979Z,96513.70
2018-10-18T16:39:00.444Z,96520.83
2018-10-18T16:41:28.982Z,96524.66
2018-10-18T16:43:57.304Z,96525.09
2018-10-18T16:46:25.628Z,96525.11
2018-10-18T16:48:53.966Z,96535.18
2018-10-18T16:51:22.338Z,96533.73
2018-10-18T16:53:50.704Z,96539.09
2018-10-18T16:56:19.126Z,96536.50
2018-10-18T16:58:47.456Z,96548.64
2018-10-18T17:01:15.828Z,96553.86
2018-10-18T17:03:44.302Z,96558.33
2018-10-18T17:06:12.836Z,96562.92
2018-10-18T17:08:41.251Z,96566.91
2018-10-18T17:11:09.762Z,96563.38
2018-10-18T17:13:38.238Z,96571.87
2018-10-18T17:16:07.091Z,96571.23
2018-10-18T17:18:35.415Z,96577.48
2018-10-18T17:21:03.951Z,96576.44
2018-10-18T17:23:32.393Z,96579.97
2018-10-18T17:26:00.744Z,96587.89
2018-10-18T17:28:29.115Z,96589.47
2018-10-18T17:30:57.554Z,96589.77
2018-10-18T17:33:25.971Z,96592.33
2018-10-18T17:35:54.384Z,96592.03
2018-10-18T17:38:22.794Z,96592.03
2018-10-18T17:40:51.396Z,96594.90
2018-10-18T17:43:19.718Z,96593.31
2018-10-18T17:45:48.197Z,96592.55
2018-10-18T17:48:16.902Z,96596.97
2018-10-18T17:50:45.300Z,96600.45
2018-10-18T17:53:13.677Z,96603.75
2018-10-18T17:55:42.019Z,96603.75
2018-10-18T17:58:10.587Z,96595.36
2018-10-18T18:00:38.956Z,96599.57
2018-10-18T18:03:07.336Z,96602.86
2018-10-18T18:05:35.750Z,96607.15
2018-10-18T18:08:04.176Z,96613.28
2018-10-18T18:10:32.574Z,96611.48
2018-10-18T18:13:00.973Z,96614.67
2018-10-18T18:15:29.332Z,96615.77
2018-10-18T18:17:57.711Z,96617.75
2018-10-18T18:20:26.097Z,96618.89
2018-10-18T18:22:54.529Z,96620.53
2018-10-18T18:25:22.849Z,96632.13
2018-10-18T18:27:51.237Z,96625.53
2018-10-18T18:30:19.669Z,96628.08
2018-10-18T18:32:48.175Z,96623.06
2018-10-18T18:35:16.539Z,96630.88
2018-10-18T18:37:44.954Z,96628.95
2018-10-18T18:40:13.293Z,96627.13
2018-10-18T18:42:41.816Z,96627.84
2018-10-18T18:45:15.577Z,96632.18
2018-10-18T18:47:43.919Z,96630.55
2018-10-18T18:50:12.499Z,96635.30
2018-10-18T18:52:40.869Z,96630.60
2018-10-18T18:55:10.142Z,96642.92
2018-10-18T18:57:39.774Z,96645.59
2018-10-18T19:00:09.654Z,96646.11
2018-10-18T19:02:38.390Z,96653.19
2018-10-18T19:05:07.699Z,96653.09
2018-10-18T19:07:36.272Z,96648.25
2018-10-18T19:10:05.110Z,96654.03
2018-10-18T19:12:33.494Z,96654.00
2018-10-18T19:15:01.929Z,96654.42
2018-10-18T19:17:30.262Z,96657.40
2018-10-18T19:19:58.750Z,96655.33
2018-10-18T19:22:27.255Z,96655.10
2018-10-18T19:24:55.807Z,96656.59
2018-10-18T19:27:24.134Z,96660.50
2018-10-18T19:29:52.651Z,96658.83
2018-10-18T19:32:21.082Z,96661.95
2018-10-18T19:34:49.422Z,96660.27
2018-10-18T19:37:17.759Z,96656.63
2018-10-18T19:39:46.451Z,96661.54
2018-10-18T19:42:15.008Z,96658.06
2018-10-18T19:44:43.441Z,96658.30
2018-10-18T19:47:13.001Z,96666.72
2018-10-18T19:49:41.714Z,96665.59
2018-10-18T19:52:10.311Z,96662.95
2018-10-18T19:54:39.946Z,96669.19
2018-10-18T19:57:08.272Z,96669.45
2018-10-18T19:59:36.862Z,96666.58
2018-10-18T20:02:05.710Z,96662.98
2018-10-18T20:04:34.015Z,96662.77
2018-10-18T20:07:02.422Z,96668.59
2018-10-18T20:09:30.757Z,96665.66
2018-10-18T20:11:59.318Z,96662.30
2018-10-18T20:14:28.075Z,96660.75
2018-10-18T20:16:56.495Z,96670.28
2018-10-18T20:19:25.115Z,96665.53
2018-10-18T20:21:53.502Z,96672.50
2018-10-18T20:24:22.091Z,96668.08
2018-10-18T20:26:50.448Z,96670.87
2018-10-18T20:29:18.761Z,96670.23
2018-10-18T20:31:47.254Z,96675.25
2018-10-18T20:34:15.571Z,96676.41
2018-10-18T20:36:43.994Z,96678.22
2018-10-18T20:39:12.733Z,96685.67
2018-10-18T20:41:41.140Z,96689.97
2018-10-18T20:44:09.617Z,96686.45
2018-10-18T20:46:38.408Z,96686.95
2018-10-18T20:49:06.719Z,96689.23
2018-10-18T20:51:35.070Z,96686.09
2018-10-18T20:54:03.709Z,96689.06
2018-10-18T20:56:32.128Z,96692.28
2018-10-18T20:59:00.541Z,96684.95
2018-10-18T21:01:29.026Z,96685.25
2018-10-18T21:03:58.372Z,96682.80
2018-10-18T21:06:26.708Z,96690.77
2018-10-18T21:08:55.122Z,96692.77
2018-10-18T21:11:23.433Z,96692.83
2018-10-18T21:13:51.807Z,96694.33
2018-10-18T21:16:20.329Z,96688.06
2018-10-18T21:18:48.678Z,96690.04
2018-10-18T21:21:17.007Z,96692.53
2018-10-18T21:23:45.736Z,96691.16
2018-10-18T21:26:14.031Z,96691.78
2018-10-18T21:28:42.385Z,96691.30
2018-10-18T21:31:10.963Z,96684.18
2018-10-18T21:33:39.427Z,96683.80
2018-10-18T21:36:07.719Z,96670.99
2018-10-18T21:38:36.115Z,96675.48
2018-10-18T21:41:04.540Z,96680.47
2018-10-18T21:43:32.854Z,96669.91
2018-10-18T21:46:01.245Z,96678.56
2018-10-18T21:48:30.207Z,96669.30
2018-10-18T21:50:59.238Z,96673.45
2018-10-18T21:53:27.801Z,96670.80
2018-10-18T21:55:56.182Z,96666.67
2018-10-18T21:58:24.757Z,96667.31
2018-10-18T22:00:53.478Z,96677.09
2018-10-18T22:03:21.835Z,96676.65
2018-10-18T22:05:50.207Z,96672.13
2018-10-18T22:08:18.619Z,96678.87
2018-10-18T22:10:46.938Z,96671.73
2018-10-18T22:13:15.219Z,96678.83
2018-10-18T22:15:43.708Z,96678.48
2018-10-18T22:18:12.017Z,96681.62
2018-10-18T22:20:40.313Z,96681.70
2018-10-18T22:23:08.781Z,96675.15
2018-10-18T22:25:37.127Z,96682.66
2018-10-18T22:28:05.948Z,96676.86
2018-10-18T22:30:34.336Z,96679.52
2018-10-18T22:33:02.717Z,96677.36
2018-10-18T22:35:31.169Z,96684.35
2018-10-18T22:37:59.600Z,96681.88
2018-10-18T22:40:27.917Z,96681.39
2018-10-18T22:42:56.315Z,96677.25
2018-10-18T22:45:24.787Z,96676.76
2018-10-18T22:47:53.166Z,96670.95
2018-10-18T22:50:21.556Z,96676.91
2018-10-18T22:52:49.997Z,96673.58
2018-10-18T22:55:18.381Z,96675.41
2018-10-18T22:57:46.690Z,96674.27
2018-10-18T23:00:15.264Z,96674.78
2018-10-18T23:02:43.629Z,96676.07
2018-10-18T23:05:12.197Z,96675.52
2018-10-18T23:07:40.472Z,96666.90
2018-10-18T23:10:08.937Z,96668.18
2018-10-18T23:12:37.265Z,96661.86
2018-10-18T23:15:07.836Z,96669.16
2018-10-18T23:17:36.249Z,96667.91
2018-10-18T23:20:05.041Z,96663.97
2018-10-18T23:22:33.461Z,96663.67
2018-10-18T23:25:01.760Z,96668.36
2018-10-18T23:27:32.875Z,96669.03
2018-10-18T23:30:01.239Z,96662.23
2018-10-18T23:32:30.629Z,96663.59
2018-10-18T23:34:59.359Z,96664.42
2018-10-18T23:37:27.905Z,96663.91
2018-10-18T23:39:56.267Z,96665.70
2018-10-18T23:42:24.638Z,96660.39
2018-10-18T23:44:53.098Z,96661.16
2018-10-18T23:47:21.372Z,96652.33
2018-10-18T23:49:49.677Z,96658.97
2018-10-18T23:52:18.115Z,96654.02
2018-10-18T23:54:46.535Z,96656.52
2018-10-18T23:57:14.919Z,96652.54
2018-10-18T23:59:43.381Z,96651.58
